Terminal Aerodrome Forecast
Issued by NWS Wilmington, OH

Home | Current Version | Previous Version | Text Only | Print | Product List | Glossary On
Versions: 1 2 3 4 5 6 7 8 9 10 11 12 13 14 15 16
000
FTUS41 KILN 240906 AAA
TAFCMH
TAF AMD
KCMH 240906Z 2409/2506 33005KT P6SM OVC005
      TEMPO 2409/2413 3SM -DZ BR
     FM241300 31007KT P6SM OVC008
     FM241800 30008KT P6SM OVC015
     FM242200 28006KT P6SM OVC025
     FM250400 21004KT P6SM SCT025 BKN120=

USA.gov is the U.S. government's official web portal to all federal, state and local government web resources and services.